Terminal Aerodrome Forecast
Issued by NWS

Home | Current Version | Previous Version | Text Only | Print | Product List | Glossary On
Versions: 1 2 3 4 5 6 7 8 9 10 11 12 13 14 15 16 17 18
592
FTUS46 KMTR 251729
TAFSTS
TAF
KSTS 251729Z 2518/2618 19005KT P6SM VCSH BKN020 BKN040
     FM252100 19007KT P6SM VCSH BKN030 BKN040
     FM252300 18007KT P6SM VCSH SCT035 BKN050
     FM260200 17005KT P6SM SCT035 BKN050
     FM260500 VRB03KT P6SM BKN030 BKN050
     FM261700 32007KT P6SM SCT030 BKN050=

USA.gov is the U.S. government's official web portal to all federal, state and local government web resources and services.